Pierce City, Missouri
Current Conditions -  °F | °C
As of 12:15 AM on Monday 22 Dec 2014 (Local Time) from KHFJ Reporting Station
Haze Haze  
Wind Chill: 35°   Ceiling: 1700
Heat Index: 41°   Visibility: 4mi
Dew Point: 39°   Wind: 10mph
Humidity: 93%   Direction: 130°SE
Pressure: 29.76"   Gusts: NA
Location:  36.95°N, 94°W
Report Text: KHFJ 220615Z AUTO 13009KT 4SM BR SCT007 BKN017 OVC022 05/04 A2976 RMK AO2
Loading
Personal Weather Stations






























Interactive Weather Map New forecast layout! Learn more

10-Day Weather Forecast

Advertisements
Track Severe Weather on mobile